Time;durP1;ratioP1;P1;durP2;ratioP2;P2;SDS_P1;SDS_P2;PMS_P1;PMS_P2;Temp;Humidity;BMP_temperature;BMP_pressure;BME280_temperature;BME280_humidity;BME280_pressure;Samples;Min_cycle;Max_cycle;Signal;HPM_P1;HPM_P2
2023/08/15 00:01:22;;;;;;;13.80;12.48;;;17.60;99.90;;;;;;5049890;28;20404;-93
2023/08/15 00:03:50;;;;;;;13.67;12.30;;;17.60;99.90;;;;;;5049960;28;20532;-92
2023/08/15 00:06:17;;;;;;;12.95;11.60;;;17.60;99.90;;;;;;5049753;28;20456;-93
2023/08/15 00:08:42;;;;;;;14.15;12.40;;;18.00;99.90;;;;;;5066460;28;20392;-92
2023/08/15 00:11:08;;;;;;;13.80;12.20;;;17.60;99.90;;;;;;5050220;28;20406;-92
2023/08/15 00:13:34;;;;;;;11.90;10.73;;;17.60;99.90;;;;;;5065237;28;20404;-93
2023/08/15 00:16:00;;;;;;;13.27;11.98;;;17.50;99.90;;;;;;5049613;28;20417;-92
2023/08/15 00:18:25;;;;;;;14.13;12.83;;;18.20;99.90;;;;;;5067076;28;20410;-92
2023/08/15 00:20:51;;;;;;;12.70;11.50;;;17.80;99.90;;;;;;5050508;28;20411;-92
2023/08/15 00:23:17;;;;;;;11.90;10.80;;;18.00;99.90;;;;;;5049632;28;20453;-92
2023/08/15 00:25:43;;;;;;;13.50;12.20;;;17.80;99.90;;;;;;5049528;28;20436;-92
2023/08/15 00:28:08;;;;;;;13.07;11.70;;;18.30;99.90;;;;;;5049614;28;20461;-92
2023/08/15 00:30:34;;;;;;;14.35;12.48;;;18.20;99.90;;;;;;5066178;28;20480;-92
2023/08/15 00:33:01;;;;;;;14.20;12.85;;;18.10;99.90;;;;;;5066346;28;20411;-93
2023/08/15 00:35:26;;;;;;;12.52;11.23;;;18.20;99.90;;;;;;5049976;28;20760;-92
2023/08/15 00:37:52;;;;;;;14.20;12.80;;;17.90;99.90;;;;;;5067436;28;20419;-92
2023/08/15 00:40:18;;;;;;;14.97;13.37;;;18.30;99.90;;;;;;5049811;28;20404;-93
2023/08/15 00:42:43;;;;;;;14.25;12.85;;;17.90;99.90;;;;;;5048943;28;20920;-93
2023/08/15 00:45:09;;;;;;;14.43;12.93;;;18.40;99.90;;;;;;5049477;28;20408;-92
2023/08/15 00:47:36;;;;;;;15.13;12.38;;;17.90;99.90;;;;;;5049473;28;20408;-92
2023/08/15 00:50:03;;;;;;;12.80;11.50;;;17.90;99.90;;;;;;5049275;28;20415;-92
2023/08/15 00:52:28;;;;;;;14.52;13.02;;;18.00;99.90;;;;;;5048873;28;20411;-92
2023/08/15 00:54:54;;;;;;;13.25;11.85;;;18.20;99.90;;;;;;5049047;28;20399;-92
2023/08/15 00:57:21;;;;;;;14.70;12.67;;;18.20;99.90;;;;;;5049236;28;20876;-91
2023/08/15 00:59:47;;;;;;;15.90;13.90;;;18.20;99.90;;;;;;5049332;28;20400;-92
2023/08/15 01:02:13;;;;;;;14.55;13.10;;;18.10;99.90;;;;;;5065983;28;20395;-92
2023/08/15 01:04:40;;;;;;;15.75;13.50;;;18.00;99.90;;;;;;5049285;28;20396;-92
2023/08/15 01:07:06;;;;;;;16.45;13.25;;;17.90;99.90;;;;;;5049598;28;20387;-92
2023/08/15 01:09:32;;;;;;;15.73;14.17;;;18.00;99.90;;;;;;5049020;28;20404;-92
2023/08/15 01:12:45;;;;;;;13.38;12.18;;;17.80;99.90;;;;;;5065938;28;20407;-92
2023/08/15 01:15:20;;;;;;;15.85;14.25;;;17.90;99.90;;;;;;5005979;28;20431;-91
2023/08/15 01:18:02;;;;;;;16.80;15.10;;;17.80;99.90;;;;;;5049140;28;20395;-92
2023/08/15 01:20:34;;;;;;;14.82;13.18;;;17.80;99.90;;;;;;5049334;28;20461;-92
2023/08/15 01:23:02;;;;;;;16.25;13.57;;;18.10;99.90;;;;;;5049165;28;20438;-93
2023/08/15 01:25:30;;;;;;;13.40;12.10;;;17.80;99.90;;;;;;5051201;28;20407;-92
2023/08/15 01:27:56;;;;;;;14.13;12.63;;;18.10;99.90;;;;;;5053149;28;20437;-92
2023/08/15 01:30:23;;;;;;;12.55;11.32;;;17.70;99.90;;;;;;5052593;28;21261;-93
2023/08/15 01:33:00;;;;;;;14.93;13.15;;;17.70;99.90;;;;;;5069435;28;20396;-92
2023/08/15 01:35:37;;;;;;;16.00;14.13;;;17.70;99.90;;;;;;5052578;28;20416;-92
2023/08/15 01:38:12;;;;;;;13.55;11.52;;;17.60;99.90;;;;;;5052946;28;20416;-92
2023/08/15 01:40:40;;;;;;;14.80;12.85;;;17.50;99.90;;;;;;5053036;28;20396;-92
2023/08/15 01:43:10;;;;;;;14.60;13.13;;;17.80;99.90;;;;;;5069086;28;20785;-91
2023/08/15 01:45:36;;;;;;;16.08;12.88;;;18.20;99.90;;;;;;5068718;28;20418;-92
2023/08/15 01:48:01;;;;;;;14.65;13.07;;;17.80;99.90;;;;;;5052402;28;20392;-92
2023/08/15 01:50:27;;;;;;;15.00;13.60;;;17.60;99.90;;;;;;5052158;28;20415;-92
2023/08/15 01:52:53;;;;;;;15.85;14.32;;;17.60;99.90;;;;;;5051996;28;20768;-91
2023/08/15 01:55:19;;;;;;;14.80;13.37;;;17.60;99.90;;;;;;5052236;28;20761;-92
2023/08/15 01:57:44;;;;;;;15.40;13.80;;;18.00;99.90;;;;;;5052232;28;20882;-92
2023/08/15 02:00:10;;;;;;;15.25;13.75;;;17.70;99.90;;;;;;5051907;28;20450;-92
2023/08/15 02:02:36;;;;;;;14.90;13.40;;;17.60;99.90;;;;;;5068608;28;20931;-92
2023/08/15 02:05:02;;;;;;;14.55;13.15;;;17.60;99.90;;;;;;5051735;28;20408;-92
2023/08/15 02:07:28;;;;;;;17.73;15.32;;;17.70;99.90;;;;;;5068565;28;20409;-92
2023/08/15 02:09:54;;;;;;;16.42;14.75;;;17.60;99.90;;;;;;5052223;28;20396;-92
2023/08/15 02:12:20;;;;;;;17.90;15.60;;;17.50;99.90;;;;;;5052033;28;20415;-92
2023/08/15 02:14:45;;;;;;;18.17;15.23;;;17.60;99.90;;;;;;5051849;28;20454;-92
2023/08/15 02:17:11;;;;;;;18.00;15.63;;;17.60;99.90;;;;;;5051223;28;20404;-92
2023/08/15 02:19:37;;;;;;;16.67;14.97;;;18.00;99.90;;;;;;5051866;28;20713;-91
2023/08/15 02:22:02;;;;;;;15.50;13.90;;;17.60;99.90;;;;;;5051351;28;20396;-92
2023/08/15 02:24:29;;;;;;;14.93;13.47;;;17.50;99.90;;;;;;5051743;28;20431;-93
2023/08/15 02:26:55;;;;;;;14.98;12.77;;;17.80;99.90;;;;;;5051551;28;20415;-91
2023/08/15 02:29:20;;;;;;;14.90;13.30;;;17.40;99.90;;;;;;5051053;28;20404;-92
2023/08/15 02:31:47;;;;;;;14.70;13.20;;;17.50;99.90;;;;;;5051073;28;20461;-92
2023/08/15 02:34:17;;;;;;;15.95;13.32;;;17.50;99.90;;;;;;5047283;28;20449;-92
2023/08/15 02:36:47;;;;;;;15.35;13.50;;;17.50;99.90;;;;;;5030494;28;20406;-92
2023/08/15 02:39:15;;;;;;;14.98;13.02;;;17.50;99.90;;;;;;5030354;28;20425;-92
2023/08/15 02:41:41;;;;;;;13.85;12.15;;;17.70;99.90;;;;;;5030766;28;20477;-93
2023/08/15 02:44:07;;;;;;;15.90;14.30;;;17.40;99.90;;;;;;5030799;28;20436;-92
2023/08/15 02:46:33;;;;;;;14.10;12.57;;;17.70;99.90;;;;;;5031378;28;20758;-92
2023/08/15 02:48:59;;;;;;;14.70;13.10;;;17.30;99.90;;;;;;5033994;28;20407;-92
2023/08/15 02:51:24;;;;;;;14.23;12.82;;;17.60;99.90;;;;;;5034665;28;20416;-92
2023/08/15 02:53:50;;;;;;;14.57;13.03;;;17.40;99.90;;;;;;5034497;28;20419;-91
2023/08/15 02:56:16;;;;;;;13.75;12.35;;;17.60;99.90;;;;;;5034690;28;20396;-92
2023/08/15 02:58:42;;;;;;;13.55;12.25;;;17.80;99.90;;;;;;5034166;28;20494;-92
2023/08/15 03:01:07;;;;;;;17.65;15.82;;;17.40;99.90;;;;;;5033969;28;20418;-92
2023/08/15 03:03:33;;;;;;;17.40;14.73;;;17.30;99.90;;;;;;5033713;28;20427;-91
2023/08/15 03:06:03;;;;;;;16.70;14.35;;;17.70;99.90;;;;;;5034094;28;20410;-92
2023/08/15 03:08:29;;;;;;;15.18;13.63;;;17.40;99.90;;;;;;5034016;28;20451;-93
2023/08/15 03:10:58;;;;;;;15.98;14.20;;;17.60;99.90;;;;;;5033712;28;20475;-91
2023/08/15 03:13:23;;;;;;;16.15;14.05;;;17.60;99.90;;;;;;5033742;28;20488;-92
2023/08/15 03:15:54;;;;;;;17.23;14.77;;;17.40;99.90;;;;;;5034372;28;20458;-91
2023/08/15 03:18:19;;;;;;;16.58;14.82;;;17.50;99.90;;;;;;5033958;28;20400;-92
2023/08/15 03:20:58;;;;;;;14.93;13.47;;;17.60;99.90;;;;;;5033731;28;20422;-92
2023/08/15 03:23:24;;;;;;;13.37;11.83;;;17.50;99.90;;;;;;5033531;28;20427;-92
2023/08/15 03:26:12;;;;;;;14.77;13.10;;;17.50;99.90;;;;;;5033474;28;20477;-92
2023/08/15 03:28:38;;;;;;;15.23;13.73;;;17.60;99.90;;;;;;5030687;28;20435;-93
2023/08/15 03:31:05;;;;;;;16.00;14.40;;;17.60;99.90;;;;;;5033829;28;20483;-93
2023/08/15 03:33:30;;;;;;;16.75;14.85;;;17.80;99.90;;;;;;5034286;28;20814;-92
2023/08/15 03:35:56;;;;;;;16.17;14.30;;;17.80;99.90;;;;;;5033337;28;20442;-91
2023/08/15 03:38:22;;;;;;;16.20;14.50;;;17.50;99.90;;;;;;5050607;28;20399;-92
2023/08/15 03:41:00;;;;;;;16.75;15.18;;;17.60;99.90;;;;;;5033580;28;20403;-91
2023/08/15 03:43:26;;;;;;;15.65;13.93;;;17.90;99.90;;;;;;5033476;28;20950;-92
2023/08/15 03:45:52;;;;;;;17.80;15.93;;;17.70;99.90;;;;;;5034021;28;20479;-92
2023/08/15 03:48:17;;;;;;;19.13;16.50;;;18.00;99.90;;;;;;5033578;28;20400;-93
2023/08/15 03:50:43;;;;;;;19.75;16.90;;;17.80;99.90;;;;;;5030072;28;20413;-92
2023/08/15 03:53:09;;;;;;;17.30;15.50;;;17.70;99.90;;;;;;5029683;28;20483;-92
2023/08/15 03:55:35;;;;;;;18.20;16.30;;;17.80;99.90;;;;;;5029711;28;20475;-92
2023/08/15 03:58:00;;;;;;;20.03;17.97;;;17.80;99.90;;;;;;5030405;28;20402;-92
2023/08/15 04:00:26;;;;;;;24.13;20.75;;;17.90;99.90;;;;;;5030274;28;20458;-92
2023/08/15 04:02:52;;;;;;;21.87;19.60;;;18.00;99.90;;;;;;5030038;28;20429;-92
2023/08/15 04:05:17;;;;;;;20.88;18.67;;;18.00;99.90;;;;;;5029948;28;20898;-91
2023/08/15 04:07:44;;;;;;;22.40;20.02;;;17.90;99.90;;;;;;5029869;28;20398;-91
2023/08/15 04:10:11;;;;;;;22.60;20.23;;;18.30;99.90;;;;;;5029525;28;20402;-92
2023/08/15 04:12:37;;;;;;;27.07;24.17;;;18.20;99.90;;;;;;5030196;28;20555;-92
2023/08/15 04:15:04;;;;;;;21.77;19.58;;;17.90;99.90;;;;;;5030137;28;20852;-92
2023/08/15 04:17:30;;;;;;;25.83;23.13;;;17.90;99.90;;;;;;5029861;28;20405;-92
2023/08/15 04:19:56;;;;;;;24.83;22.33;;;18.30;99.90;;;;;;5041104;28;20403;-92
2023/08/15 04:22:22;;;;;;;22.27;19.97;;;18.30;99.90;;;;;;5049557;28;20412;-92
2023/08/15 04:24:47;;;;;;;23.85;21.42;;;17.80;99.90;;;;;;5050022;28;20392;-92
2023/08/15 04:27:13;;;;;;;23.33;21.03;;;17.80;99.90;;;;;;5049409;28;20411;-92
2023/08/15 04:29:39;;;;;;;26.08;23.38;;;17.70;99.90;;;;;;5049899;28;20400;-92
2023/08/15 04:32:04;;;;;;;23.20;20.70;;;17.80;99.90;;;;;;5066517;28;20407;-91
2023/08/15 04:34:30;;;;;;;27.20;24.40;;;17.70;99.90;;;;;;5050054;28;20977;-91
2023/08/15 04:36:56;;;;;;;25.93;21.73;;;17.70;99.90;;;;;;5049097;28;20459;-91
2023/08/15 04:39:21;;;;;;;23.67;21.10;;;18.20;99.90;;;;;;5049819;28;20411;-92
2023/08/15 04:41:47;;;;;;;25.42;22.13;;;17.90;99.90;;;;;;5049422;28;21093;-92
2023/08/15 04:44:13;;;;;;;22.90;20.47;;;18.00;99.90;;;;;;5049495;28;20435;-91
2023/08/15 04:46:39;;;;;;;25.23;22.88;;;18.00;99.90;;;;;;5049770;28;20408;-89
2023/08/15 04:49:05;;;;;;;27.05;23.13;;;17.60;99.90;;;;;;5048716;28;21011;-92
2023/08/15 04:51:31;;;;;;;27.20;24.07;;;17.60;99.90;;;;;;5049526;28;20419;-92
2023/08/15 04:53:56;;;;;;;23.80;21.48;;;17.60;99.90;;;;;;5049724;28;20442;-91
2023/08/15 04:56:22;;;;;;;21.60;19.30;;;17.80;99.90;;;;;;5043839;28;20429;-92
2023/08/15 04:58:48;;;;;;;23.33;20.30;;;17.60;99.90;;;;;;5028993;28;20456;-93
2023/08/15 05:01:14;;;;;;;21.25;18.92;;;17.60;99.90;;;;;;5033644;28;20411;-92
2023/08/15 05:03:40;;;;;;;20.60;18.40;;;18.00;99.90;;;;;;5033139;28;20813;-92
2023/08/15 05:06:06;;;;;;;22.25;19.65;;;17.70;99.90;;;;;;5032379;28;20402;-93
2023/08/15 05:08:32;;;;;;;21.67;17.50;;;17.60;99.90;;;;;;5049972;28;20416;-90
2023/08/15 05:11:00;;;;;;;20.00;17.38;;;17.60;99.90;;;;;;5032718;28;20412;-91
2023/08/15 05:13:26;;;;;;;20.83;16.38;;;17.60;99.90;;;;;;5033240;28;20417;-90
2023/08/15 05:15:52;;;;;;;18.08;14.68;;;17.60;99.90;;;;;;5033049;28;20420;-92
2023/08/15 05:18:19;;;;;;;16.23;14.33;;;17.60;99.90;;;;;;5033741;28;20471;-92
2023/08/15 05:20:48;;;;;;;19.53;13.77;;;17.60;99.90;;;;;;5069066;28;20418;-92
2023/08/15 05:23:14;;;;;;;17.60;13.48;;;17.50;99.90;;;;;;5051597;28;20470;-93
2023/08/15 05:25:43;;;;;;;16.80;14.15;;;17.50;99.90;;;;;;5052292;28;20407;-91
2023/08/15 05:28:10;;;;;;;17.03;12.63;;;17.60;99.90;;;;;;5049890;28;20423;-92
2023/08/15 05:30:36;;;;;;;15.93;10.75;;;17.50;99.90;;;;;;5069125;28;20487;-91
2023/08/15 05:33:02;;;;;;;17.75;12.05;;;17.50;99.90;;;;;;5049210;28;20406;-92
2023/08/15 05:35:28;;;;;;;15.90;10.98;;;17.50;99.90;;;;;;5032712;28;20418;-91
2023/08/15 05:37:54;;;;;;;13.65;9.65;;;17.50;99.90;;;;;;5048043;28;21157;-91
2023/08/15 05:40:21;;;;;;;17.48;10.48;;;17.50;99.90;;;;;;5052096;28;20903;-92
2023/08/15 05:42:47;;;;;;;12.30;9.57;;;17.50;99.90;;;;;;5086182;28;20644;-91
2023/08/15 05:45:12;;;;;;;17.20;9.93;;;17.50;99.90;;;;;;5051350;28;20404;-92
2023/08/15 05:47:38;;;;;;;14.53;9.30;;;17.50;99.90;;;;;;5051783;28;20403;-91
2023/08/15 05:50:04;;;;;;;15.00;9.80;;;17.70;99.90;;;;;;5051203;28;20416;-92
2023/08/15 05:52:30;;;;;;;13.85;10.07;;;17.50;99.90;;;;;;5049072;28;20851;-91
2023/08/15 05:54:56;;;;;;;14.13;10.15;;;17.60;99.90;;;;;;5051684;28;20561;-92
2023/08/15 05:57:22;;;;;;;14.70;9.40;;;17.60;99.90;;;;;;5051573;28;20404;-91
2023/08/15 05:59:48;;;;;;;16.33;9.57;;;17.60;99.90;;;;;;5052131;28;20780;-93
2023/08/15 06:02:14;;;;;;;18.52;10.43;;;18.00;99.90;;;;;;5051338;28;20400;-90
2023/08/15 06:04:41;;;;;;;19.80;10.15;;;18.10;99.90;;;;;;5051408;28;20475;-92
2023/08/15 06:07:06;;;;;;;16.05;9.70;;;18.20;99.90;;;;;;5048348;28;20405;-92
2023/08/15 06:09:32;;;;;;;17.08;9.63;;;18.10;99.90;;;;;;5051974;28;20518;-92
2023/08/15 06:11:58;;;;;;;14.20;8.60;;;18.30;99.90;;;;;;5051192;28;20491;-93
2023/08/15 06:14:24;;;;;;;14.73;8.50;;;19.00;99.90;;;;;;5048552;28;20425;-90
2023/08/15 06:16:50;;;;;;;15.02;8.32;;;18.80;99.90;;;;;;5031426;28;20425;-91
2023/08/15 06:19:16;;;;;;;12.88;7.72;;;18.90;99.90;;;;;;5030503;28;20409;-91
2023/08/15 06:21:42;;;;;;;11.05;7.55;;;18.90;99.90;;;;;;5031203;28;20417;-92
2023/08/15 06:24:09;;;;;;;10.38;6.57;;;19.50;99.90;;;;;;5030525;28;20444;-92
2023/08/15 06:26:35;;;;;;;10.50;6.45;;;19.60;99.90;;;;;;5031287;28;20459;-91
2023/08/15 06:29:01;;;;;;;12.93;6.40;;;19.40;99.90;;;;;;5030734;28;20448;-92
2023/08/15 06:31:27;;;;;;;12.75;6.78;;;19.50;99.90;;;;;;5030836;28;20398;-90
2023/08/15 06:33:53;;;;;;;13.57;5.90;;;19.90;99.90;;;;;;5031084;28;20946;-91
2023/08/15 06:36:19;;;;;;;13.87;6.00;;;19.80;99.90;;;;;;5031374;28;20410;-91
2023/08/15 06:38:44;;;;;;;11.45;5.47;;;19.90;99.90;;;;;;5047940;28;20400;-92
2023/08/15 06:41:11;;;;;;;11.57;5.60;;;20.00;99.90;;;;;;5050672;28;20407;-92
2023/08/15 06:43:37;;;;;;;11.65;5.68;;;20.00;99.90;;;;;;5051265;28;20427;-91
2023/08/15 06:46:03;;;;;;;10.93;5.20;;;20.20;99.90;;;;;;5051154;28;20412;-92
2023/08/15 06:48:29;;;;;;;11.80;5.50;;;20.30;99.90;;;;;;5051158;28;20438;-92
2023/08/15 06:50:55;;;;;;;11.65;5.10;;;20.40;99.90;;;;;;5067103;28;20407;-92
2023/08/15 06:53:21;;;;;;;12.63;5.00;;;20.50;99.90;;;;;;5051288;28;20495;-93
2023/08/15 06:55:49;;;;;;;12.93;5.37;;;20.60;99.90;;;;;;5051367;28;20406;-91
2023/08/15 06:58:15;;;;;;;10.52;4.30;;;20.80;99.90;;;;;;5052169;28;20453;-93
2023/08/15 07:00:42;;;;;;;8.85;4.00;;;21.00;99.90;;;;;;5051208;28;20982;-92
2023/08/15 07:03:08;;;;;;;13.55;5.00;;;21.00;99.90;;;;;;5066768;28;20432;-92
2023/08/15 07:05:34;;;;;;;10.57;4.30;;;21.00;99.90;;;;;;5050788;28;20464;-92
2023/08/15 07:08:00;;;;;;;9.65;3.25;;;21.00;99.90;;;;;;5050388;28;20495;-91
2023/08/15 07:10:26;;;;;;;9.00;3.25;;;21.10;99.90;;;;;;5050957;28;20733;-93
2023/08/15 07:12:52;;;;;;;8.10;3.08;;;21.50;99.90;;;;;;5051048;28;20400;-93
2023/08/15 07:15:17;;;;;;;9.23;3.35;;;21.70;99.90;;;;;;5050584;28;20392;-92
2023/08/15 07:17:43;;;;;;;10.10;3.17;;;21.20;99.90;;;;;;5050618;28;20451;-92
2023/08/15 07:20:10;;;;;;;7.40;2.77;;;21.20;99.90;;;;;;5049922;28;20415;-93
2023/08/15 07:22:36;;;;;;;10.10;3.58;;;21.20;99.90;;;;;;5050083;28;20414;-91
2023/08/15 07:25:02;;;;;;;8.60;2.73;;;21.30;99.90;;;;;;5049961;28;20416;-93
2023/08/15 07:27:28;;;;;;;6.60;2.72;;;21.00;99.90;;;;;;5050548;28;20415;-92
2023/08/15 07:29:53;;;;;;;9.67;2.90;;;21.60;99.90;;;;;;5050303;28;20406;-93
2023/08/15 07:32:19;;;;;;;6.72;2.75;;;21.80;99.90;;;;;;5049966;28;20460;-91
2023/08/15 07:34:45;;;;;;;8.30;2.20;;;21.80;99.90;;;;;;5050269;28;20411;-94
2023/08/15 07:37:10;;;;;;;8.00;2.15;;;22.00;99.90;;;;;;5066720;28;20407;-93
2023/08/15 07:39:36;;;;;;;8.97;2.47;;;22.10;99.90;;;;;;5050358;28;20435;-91
2023/08/15 07:42:02;;;;;;;7.60;1.95;;;22.10;99.90;;;;;;5049995;28;20420;-92
2023/08/15 07:44:27;;;;;;;7.80;1.70;;;22.00;99.90;;;;;;5050359;28;20412;-92
2023/08/15 07:46:53;;;;;;;6.10;1.65;;;21.80;99.90;;;;;;5050531;28;20411;-92
2023/08/15 07:49:19;;;;;;;7.17;2.07;;;21.80;99.90;;;;;;5049825;28;20437;-93
2023/08/15 07:51:44;;;;;;;7.43;2.03;;;22.10;99.90;;;;;;5050208;28;20444;-92
2023/08/15 07:54:10;;;;;;;9.20;2.33;;;21.80;99.90;;;;;;5049502;28;20410;-92
2023/08/15 07:56:36;;;;;;;7.70;2.00;;;21.80;99.90;;;;;;5049983;28;20403;-89
2023/08/15 07:59:03;;;;;;;5.87;2.10;;;21.80;99.90;;;;;;5049613;28;20411;-92
2023/08/15 08:01:29;;;;;;;7.95;2.53;;;21.90;99.90;;;;;;5066887;28;20507;-91
2023/08/15 08:03:55;;;;;;;7.57;2.00;;;22.00;99.90;;;;;;5049377;28;20510;-92
2023/08/15 08:06:21;;;;;;;7.70;2.08;;;21.90;99.90;;;;;;5049427;28;20487;-92
2023/08/15 08:08:47;;;;;;;6.68;2.30;;;22.20;99.90;;;;;;5049889;28;20396;-93
2023/08/15 08:11:13;;;;;;;6.95;2.50;;;22.30;99.90;;;;;;5049592;28;20431;-91
2023/08/15 08:13:39;;;;;;;7.83;2.50;;;22.40;99.90;;;;;;5049772;28;20558;-91
2023/08/15 08:16:04;;;;;;;7.07;2.72;;;22.50;99.90;;;;;;5050025;28;20396;-93
2023/08/15 08:18:30;;;;;;;8.50;2.70;;;22.70;99.90;;;;;;5049756;28;20497;-91
2023/08/15 08:20:56;;;;;;;8.02;2.17;;;22.30;99.90;;;;;;5049550;28;20532;-93
2023/08/15 08:23:23;;;;;;;8.17;1.93;;;22.60;99.90;;;;;;5049970;28;20792;-92
2023/08/15 08:25:49;;;;;;;8.13;1.95;;;22.10;99.90;;;;;;5049663;28;20501;-92
2023/08/15 08:28:15;;;;;;;7.65;2.10;;;22.20;99.90;;;;;;5049330;28;20392;-92
2023/08/15 08:30:44;;;;;;;6.40;1.90;;;22.30;99.90;;;;;;5049357;28;20403;-92
2023/08/15 08:33:09;;;;;;;7.13;2.20;;;21.90;99.90;;;;;;5049406;28;20407;-92
2023/08/15 08:35:36;;;;;;;8.95;1.65;;;22.30;99.90;;;;;;5052832;28;20761;-91
2023/08/15 08:38:01;;;;;;;7.73;1.70;;;22.00;99.90;;;;;;5053448;28;20611;-92
2023/08/15 08:40:28;;;;;;;6.75;2.00;;;22.20;99.90;;;;;;5053757;28;20407;-92
2023/08/15 08:42:54;;;;;;;6.32;1.92;;;22.20;99.90;;;;;;5053046;28;20877;-92
2023/08/15 08:45:24;;;;;;;6.40;1.77;;;22.20;99.90;;;;;;5053359;28;20404;-92
2023/08/15 08:47:50;;;;;;;5.20;1.63;;;22.20;99.90;;;;;;5069986;28;20395;-92
2023/08/15 08:50:16;;;;;;;6.38;1.60;;;22.50;99.90;;;;;;5052876;28;20904;-92
2023/08/15 08:52:48;;;;;;;5.60;1.52;;;22.70;99.90;;;;;;5053322;28;20404;-94
2023/08/15 08:55:14;;;;;;;7.25;1.42;;;22.70;99.90;;;;;;5052922;28;20486;-92
2023/08/15 08:57:44;;;;;;;6.80;1.50;;;22.60;99.90;;;;;;5053424;28;20490;-93
2023/08/15 09:00:12;;;;;;;5.45;0.98;;;23.00;99.90;;;;;;5052512;28;20412;-92
2023/08/15 09:02:39;;;;;;;6.47;1.13;;;22.60;99.90;;;;;;5053234;28;20461;-92
2023/08/15 09:05:07;;;;;;;5.20;0.90;;;22.90;99.90;;;;;;5052718;28;20396;-93
2023/08/15 09:07:36;;;;;;;6.10;1.20;;;23.10;99.90;;;;;;5052538;28;20431;-93
2023/08/15 09:10:04;;;;;;;4.53;0.90;;;23.40;99.90;;;;;;5053288;28;20514;-91
2023/08/15 09:12:34;;;;;;;4.70;0.70;;;23.60;99.90;;;;;;5052882;28;20416;-93
2023/08/15 09:15:00;;;;;;;5.57;1.07;;;23.80;99.90;;;;;;5052775;28;20411;-93
2023/08/15 09:17:26;;;;;;;5.97;1.42;;;23.80;99.90;;;;;;5052396;28;20408;-93
2023/08/15 09:19:53;;;;;;;4.60;0.80;;;23.90;99.90;;;;;;5052750;28;20400;-93
2023/08/15 09:22:23;;;;;;;5.35;0.88;;;24.00;99.90;;;;;;5052390;28;20400;-93
2023/08/15 09:24:50;;;;;;;3.83;0.70;;;24.10;99.90;;;;;;5052339;28;20428;-93
2023/08/15 09:27:17;;;;;;;5.05;0.70;;;24.40;99.90;;;;;;5051642;28;20494;-84
2023/08/15 09:29:42;;;;;;;3.95;0.70;;;24.40;99.40;;;;;;5067502;28;20426;-87
2023/08/15 09:32:08;;;;;;;3.93;0.80;;;24.50;98.20;;;;;;5051154;28;20396;-87
2023/08/15 09:34:34;;;;;;;4.57;0.90;;;24.60;99.50;;;;;;5049786;28;20406;-88
2023/08/15 09:37:01;;;;;;;4.63;0.80;;;24.40;96.70;;;;;;5046880;28;20424;-88
2023/08/15 09:39:28;;;;;;;3.47;0.80;;;24.70;98.90;;;;;;5047221;28;20438;-86
2023/08/15 09:41:53;;;;;;;4.75;0.80;;;25.20;97.00;;;;;;5047574;28;20406;-87
2023/08/15 09:44:30;;;;;;;4.37;0.80;;;24.70;91.40;;;;;;5030879;28;20444;-89
2023/08/15 09:46:56;;;;;;;4.83;1.10;;;24.90;96.30;;;;;;5030473;28;20444;-90
2023/08/15 09:49:22;;;;;;;3.90;0.88;;;24.90;96.80;;;;;;5046690;28;20535;-86
2023/08/15 09:51:48;;;;;;;4.38;0.90;;;25.40;97.70;;;;;;5047137;28;20408;-92
2023/08/15 09:54:16;;;;;;;3.95;0.90;;;25.30;88.60;;;;;;5031231;28;20409;-88
2023/08/15 09:56:42;;;;;;;5.17;0.70;;;25.30;88.70;;;;;;5039175;28;20407;-90
2023/08/15 09:59:08;;;;;;;5.07;0.77;;;25.50;91.20;;;;;;5049804;28;20514;-87
2023/08/15 10:01:37;;;;;;;3.97;0.70;;;25.60;80.00;;;;;;5050295;28;20482;-87
2023/08/15 10:04:07;;;;;;;4.90;0.85;;;25.40;78.00;;;;;;5067020;28;20454;-89
2023/08/15 10:06:34;;;;;;;3.80;1.00;;;25.70;75.00;;;;;;5046294;28;20967;-90
2023/08/15 10:09:01;;;;;;;3.43;0.80;;;25.40;74.20;;;;;;5066503;28;20429;-88
2023/08/15 10:11:30;;;;;;;4.00;0.77;;;25.10;74.60;;;;;;5029725;28;20405;-90
2023/08/15 10:13:56;;;;;;;3.80;0.83;;;24.70;83.20;;;;;;5030285;28;20949;-87
2023/08/15 10:16:22;;;;;;;5.73;0.77;;;24.60;88.20;;;;;;5029703;28;20423;-86
2023/08/15 10:18:56;;;;;;;4.65;0.60;;;25.00;84.40;;;;;;5046962;28;20910;-89
2023/08/15 10:21:27;;;;;;;3.30;0.50;;;25.40;80.30;;;;;;5046502;28;20409;-88
2023/08/15 10:23:54;;;;;;;4.47;0.77;;;25.70;81.30;;;;;;5029753;28;20467;-87
2023/08/15 10:26:20;;;;;;;5.50;0.80;;;26.10;75.60;;;;;;5046130;28;20941;-88
2023/08/15 10:28:47;;;;;;;3.83;0.70;;;26.50;70.70;;;;;;5030988;28;20489;-90
2023/08/15 10:31:13;;;;;;;3.72;0.73;;;26.70;71.30;;;;;;5046401;28;20397;-89
2023/08/15 10:33:41;;;;;;;2.75;0.52;;;26.80;67.00;;;;;;5046910;28;20463;-87
2023/08/15 10:36:08;;;;;;;4.13;0.60;;;27.30;64.60;;;;;;5030406;28;20566;-88
2023/08/15 10:38:43;;;;;;;2.30;0.40;;;27.20;64.70;;;;;;5046666;28;20440;-90
2023/08/15 10:41:17;;;;;;;3.65;0.70;;;27.20;64.30;;;;;;5029474;28;20420;-90
2023/08/15 10:43:52;;;;;;;3.45;0.70;;;27.10;61.70;;;;;;5029323;28;20852;-90
2023/08/15 10:46:24;;;;;;;2.90;0.40;;;27.00;60.70;;;;;;5046403;28;20453;-87
2023/08/15 10:48:52;;;;;;;3.72;0.50;;;26.90;65.80;;;;;;5031754;28;20452;-90
2023/08/15 10:51:22;;;;;;;2.70;0.50;;;26.70;59.00;;;;;;5032666;28;20802;-87
2023/08/15 10:53:54;;;;;;;4.00;0.60;;;26.50;65.40;;;;;;5049671;28;20781;-89
2023/08/15 10:56:22;;;;;;;3.33;0.50;;;26.50;66.40;;;;;;5033118;28;20427;-89
2023/08/15 10:58:49;;;;;;;4.03;0.40;;;26.70;62.20;;;;;;5032757;28;20445;-91
2023/08/15 11:01:26;;;;;;;3.00;0.50;;;26.50;67.10;;;;;;5032707;28;20441;-90
2023/08/15 11:03:54;;;;;;;3.25;0.50;;;26.70;66.30;;;;;;5048910;28;20491;-89
2023/08/15 11:06:20;;;;;;;3.03;0.50;;;26.70;62.20;;;;;;5049336;28;20408;-89
2023/08/15 11:08:50;;;;;;;5.25;0.68;;;26.70;62.10;;;;;;5032740;28;20427;-88
2023/08/15 11:11:17;;;;;;;2.78;0.50;;;26.60;63.60;;;;;;5032214;28;20412;-88
2023/08/15 11:13:45;;;;;;;3.05;0.50;;;26.60;66.20;;;;;;5048807;28;20491;-87
2023/08/15 11:16:14;;;;;;;3.80;0.60;;;27.00;67.50;;;;;;5032573;28;20465;-88
2023/08/15 11:18:41;;;;;;;4.22;0.90;;;26.80;63.90;;;;;;5032585;28;20427;-88
2023/08/15 11:21:12;;;;;;;2.90;0.63;;;26.70;65.50;;;;;;5032723;28;20435;-89
2023/08/15 11:23:38;;;;;;;3.63;0.70;;;26.80;65.80;;;;;;5033277;28;20463;-89
2023/08/15 11:26:06;;;;;;;2.63;0.65;;;27.00;66.10;;;;;;5050159;28;20465;-86
2023/08/15 11:28:33;;;;;;;2.58;0.40;;;27.40;62.30;;;;;;5068008;28;20476;-87
2023/08/15 11:30:59;;;;;;;3.47;0.60;;;27.90;62.40;;;;;;5068141;28;20489;-90
2023/08/15 11:33:29;;;;;;;3.28;0.30;;;28.40;56.60;;;;;;5052447;28;20394;-89
2023/08/15 11:35:55;;;;;;;2.25;0.40;;;28.90;56.40;;;;;;5052814;28;20417;-90
2023/08/15 11:38:21;;;;;;;2.38;0.40;;;29.20;51.70;;;;;;5051887;28;20401;-88
2023/08/15 11:40:47;;;;;;;2.72;0.38;;;29.30;53.70;;;;;;5068477;28;20406;-88
2023/08/15 11:43:13;;;;;;;2.58;0.52;;;29.30;53.40;;;;;;5068008;28;20508;-89
2023/08/15 11:45:43;;;;;;;2.03;0.40;;;29.20;54.00;;;;;;5051455;28;20402;-87
2023/08/15 11:48:09;;;;;;;2.22;0.40;;;29.10;52.90;;;;;;5067935;28;20482;-90
2023/08/15 11:50:35;;;;;;;4.30;0.43;;;28.80;54.50;;;;;;5067888;28;20418;-87
2023/08/15 11:53:08;;;;;;;3.67;0.50;;;28.90;53.60;;;;;;5067598;28;20917;-90
2023/08/15 11:55:35;;;;;;;3.15;0.60;;;29.20;55.50;;;;;;5068076;28;20405;-88
2023/08/15 11:58:19;;;;;;;3.08;0.45;;;29.50;54.20;;;;;;5067422;28;20485;-87
2023/08/15 12:00:45;;;;;;;3.50;0.60;;;29.10;51.40;;;;;;5067881;28;20484;-89
2023/08/15 12:03:11;;;;;;;2.83;0.40;;;28.70;53.00;;;;;;5050948;28;20435;-87
2023/08/15 12:05:38;;;;;;;3.20;0.40;;;28.40;54.50;;;;;;5066980;28;20445;-88
2023/08/15 12:08:03;;;;;;;3.25;0.50;;;28.20;54.00;;;;;;5067177;28;20463;-87
2023/08/15 12:10:30;;;;;;;3.20;0.60;;;28.10;55.80;;;;;;5067935;28;20418;-88
2023/08/15 12:12:56;;;;;;;3.10;0.70;;;27.90;55.40;;;;;;5067633;28;20519;-89
2023/08/15 12:15:22;;;;;;;3.37;0.70;;;27.80;55.90;;;;;;5051203;28;20389;-86
2023/08/15 12:17:47;;;;;;;4.17;0.50;;;27.70;58.30;;;;;;5067370;28;20410;-88
2023/08/15 12:20:14;;;;;;;4.43;0.77;;;27.90;60.00;;;;;;5067460;28;20501;-88
2023/08/15 12:22:41;;;;;;;4.70;0.60;;;28.00;64.30;;;;;;5067352;28;20500;-91
2023/08/15 12:25:08;;;;;;;4.00;0.70;;;28.50;58.70;;;;;;5051319;28;20401;-89
2023/08/15 12:27:37;;;;;;;2.20;0.50;;;28.70;56.80;;;;;;5067076;28;20401;-86
2023/08/15 12:30:07;;;;;;;4.68;0.68;;;29.10;55.50;;;;;;5067401;28;20410;-88
2023/08/15 12:32:33;;;;;;;3.55;0.50;;;29.50;57.00;;;;;;5067923;28;20834;-88
2023/08/15 12:34:59;;;;;;;4.57;0.60;;;29.70;53.50;;;;;;5062279;28;20442;-88